Time;durP1;ratioP1;P1;durP2;ratioP2;P2;SDS_P1;SDS_P2;PMS_P1;PMS_P2;Temp;Humidity;BMP_temperature;BMP_pressure;BME280_temperature;BME280_humidity;BME280_pressure;Samples;Min_cycle;Max_cycle;Signal;HPM_P1;HPM_P2
2022/10/12 00:00:20;;;;;;;9.02;4.30;;;5.10;99.90;;;;;;5022449;28;20627;-78
2022/10/12 00:02:45;;;;;;;9.35;3.83;;;5.10;99.90;;;;;;5023006;28;20038;-78
2022/10/12 00:05:11;;;;;;;7.20;4.30;;;5.10;99.90;;;;;;5017276;28;20439;-78
2022/10/12 00:07:37;;;;;;;8.90;4.30;;;5.10;99.90;;;;;;5021747;28;20025;-78
2022/10/12 00:10:02;;;;;;;10.82;4.70;;;5.10;99.90;;;;;;5023256;28;20037;-78
2022/10/12 00:12:28;;;;;;;10.75;4.18;;;5.10;99.90;;;;;;5021793;28;20388;-78
2022/10/12 00:14:53;;;;;;;9.63;4.05;;;4.90;99.90;;;;;;5015445;28;20033;-78
2022/10/12 00:17:19;;;;;;;5.32;3.20;;;4.90;99.90;;;;;;5021283;28;20496;-79
2022/10/12 00:19:44;;;;;;;10.60;4.25;;;5.00;99.90;;;;;;5021615;28;20037;-78
2022/10/12 00:22:10;;;;;;;8.50;4.25;;;5.00;99.90;;;;;;5015339;28;20022;-79
2022/10/12 00:24:35;;;;;;;10.13;3.70;;;5.00;99.90;;;;;;5020904;28;20455;-79
2022/10/12 00:27:01;;;;;;;7.22;4.05;;;5.00;99.90;;;;;;5020020;28;20029;-79
2022/10/12 00:29:26;;;;;;;10.32;4.53;;;5.00;99.90;;;;;;5025007;28;20504;-78
2022/10/12 00:31:52;;;;;;;11.07;4.55;;;5.00;99.90;;;;;;5011569;28;20032;-78
2022/10/12 00:34:17;;;;;;;11.13;4.78;;;4.90;99.90;;;;;;5022175;28;20029;-79
2022/10/12 00:36:43;;;;;;;11.05;4.28;;;4.90;99.90;;;;;;5023335;28;20025;-78
2022/10/12 00:39:09;;;;;;;9.85;4.25;;;4.90;99.90;;;;;;5021788;28;20038;-79
2022/10/12 00:41:39;;;;;;;8.55;4.60;;;4.90;99.90;;;;;;5011866;28;20045;-79
2022/10/12 00:44:34;;;;;;;9.77;4.75;;;4.80;99.90;;;;;;5017614;28;20026;-78
2022/10/12 00:47:04;;;;;;;6.30;3.72;;;4.80;99.90;;;;;;5023787;28;20503;-78
2022/10/12 00:49:30;;;;;;;11.85;4.75;;;4.70;99.90;;;;;;5027213;28;20047;-78
2022/10/12 00:51:59;;;;;;;8.93;4.18;;;4.80;99.90;;;;;;5024706;28;20420;-78
2022/10/12 00:54:29;;;;;;;11.32;4.00;;;4.80;99.90;;;;;;5010660;28;20056;-78
2022/10/12 00:56:56;;;;;;;9.63;4.55;;;4.70;99.90;;;;;;5021390;28;20480;-78
2022/10/12 00:59:29;;;;;;;7.15;3.90;;;4.70;99.90;;;;;;5020205;28;20200;-78
2022/10/12 01:01:55;;;;;;;10.07;4.13;;;4.70;99.90;;;;;;5026825;28;20514;-79
2022/10/12 01:04:22;;;;;;;7.88;4.03;;;4.70;99.90;;;;;;5023383;28;20025;-79
2022/10/12 01:06:48;;;;;;;9.38;4.20;;;4.70;99.90;;;;;;5026626;28;20017;-78
2022/10/12 01:09:13;;;;;;;10.02;4.68;;;4.60;99.90;;;;;;5022925;28;20032;-78
2022/10/12 01:11:39;;;;;;;10.70;4.78;;;4.60;99.90;;;;;;5026705;28;20436;-78
2022/10/12 01:14:04;;;;;;;11.15;4.32;;;4.60;99.90;;;;;;5023238;28;21035;-78
2022/10/12 01:16:37;;;;;;;12.95;5.18;;;4.60;99.90;;;;;;5024117;28;20028;-78
2022/10/12 01:19:36;;;;;;;9.73;4.88;;;4.60;99.90;;;;;;5026860;28;20045;-78
2022/10/12 01:22:08;;;;;;;7.43;3.97;;;4.60;99.90;;;;;;5019847;28;20040;-78
2022/10/12 01:24:53;;;;;;;7.72;4.18;;;4.70;99.90;;;;;;5028740;28;20084;-78
2022/10/12 01:27:26;;;;;;;8.00;4.60;;;4.60;99.90;;;;;;5026944;28;20108;-78
2022/10/12 01:30:12;;;;;;;10.20;4.05;;;4.60;99.90;;;;;;5026314;28;20045;-78
2022/10/12 01:33:01;;;;;;;13.35;3.92;;;4.50;99.90;;;;;;5027018;28;20270;-78
2022/10/12 01:35:38;;;;;;;12.50;4.30;;;4.40;99.90;;;;;;5022885;28;20042;-78
2022/10/12 01:38:32;;;;;;;12.32;4.35;;;4.50;99.90;;;;;;5021395;28;20524;-78
2022/10/12 01:41:07;;;;;;;10.23;4.90;;;4.40;99.90;;;;;;5024475;28;20120;-79
2022/10/12 01:43:35;;;;;;;8.90;4.22;;;4.20;99.90;;;;;;5021444;28;20091;-78
2022/10/12 01:46:15;;;;;;;10.15;5.15;;;4.30;99.90;;;;;;5022206;28;20038;-79
2022/10/12 01:48:44;;;;;;;11.38;5.30;;;4.40;99.90;;;;;;5023458;28;20022;-78
2022/10/12 01:51:14;;;;;;;11.68;5.15;;;4.40;99.90;;;;;;5018763;28;20104;-78
2022/10/12 01:54:10;;;;;;;10.40;5.05;;;4.40;99.90;;;;;;5024220;28;20025;-78
2022/10/12 01:56:35;;;;;;;11.80;4.75;;;4.40;99.90;;;;;;5013157;28;20037;-79
2022/10/12 01:59:14;;;;;;;8.80;4.93;;;4.40;99.90;;;;;;5019984;28;20087;-79
2022/10/12 02:01:56;;;;;;;11.13;4.43;;;4.40;99.90;;;;;;5022484;28;20026;-78
2022/10/12 02:04:57;;;;;;;11.05;4.40;;;4.30;99.90;;;;;;5018588;28;20543;-79
2022/10/12 02:07:36;;;;;;;7.68;4.25;;;4.30;99.90;;;;;;5020225;28;20037;-79
2022/10/12 02:10:06;;;;;;;10.23;4.65;;;4.40;99.90;;;;;;5022788;28;20033;-79
2022/10/12 02:12:33;;;;;;;10.82;4.05;;;4.40;99.90;;;;;;5023847;28;20039;-78
2022/10/12 02:15:02;;;;;;;12.98;4.03;;;4.40;99.90;;;;;;5019956;28;20461;-78
2022/10/12 02:17:29;;;;;;;7.15;3.47;;;4.30;99.90;;;;;;5023341;28;20519;-78
2022/10/12 02:19:59;;;;;;;8.60;3.63;;;4.40;99.90;;;;;;5023936;28;20053;-79
2022/10/12 02:22:33;;;;;;;7.57;3.93;;;4.30;99.90;;;;;;5022453;28;20575;-79
2022/10/12 02:25:01;;;;;;;10.98;3.38;;;4.30;99.90;;;;;;5022805;28;20071;-78
2022/10/12 02:27:27;;;;;;;7.22;3.65;;;4.20;99.90;;;;;;5025247;28;20079;-79
2022/10/12 02:29:53;;;;;;;6.78;3.28;;;4.20;99.90;;;;;;5022933;28;20029;-78
2022/10/12 02:32:20;;;;;;;10.93;3.67;;;4.20;99.90;;;;;;5020443;28;20037;-78
2022/10/12 02:34:55;;;;;;;7.05;3.50;;;4.20;99.90;;;;;;5021543;28;20108;-78
2022/10/12 02:37:35;;;;;;;12.90;4.60;;;4.10;99.90;;;;;;5026219;28;20034;-78
2022/10/12 02:40:14;;;;;;;10.30;4.70;;;4.10;99.90;;;;;;5017849;28;20041;-78
2022/10/12 02:42:45;;;;;;;9.63;4.18;;;4.10;99.90;;;;;;5024141;28;20109;-78
2022/10/12 02:45:13;;;;;;;10.23;4.60;;;4.10;99.90;;;;;;5021665;28;20029;-79
2022/10/12 02:47:40;;;;;;;11.02;4.43;;;4.20;99.90;;;;;;5026279;28;20124;-79
2022/10/12 02:50:07;;;;;;;10.02;4.93;;;4.10;99.90;;;;;;5020961;28;20108;-78
2022/10/12 02:52:33;;;;;;;10.43;4.28;;;4.10;99.90;;;;;;5023421;28;20564;-79
2022/10/12 02:54:58;;;;;;;12.95;4.28;;;4.10;99.90;;;;;;5024966;28;20029;-78
2022/10/12 02:57:24;;;;;;;10.15;4.10;;;4.10;99.90;;;;;;5022775;28;20026;-79
2022/10/12 02:59:50;;;;;;;9.63;4.28;;;3.90;99.90;;;;;;5024236;28;20048;-78
2022/10/12 03:02:15;;;;;;;12.43;5.28;;;3.80;99.90;;;;;;5023511;28;20029;-78
2022/10/12 03:04:41;;;;;;;13.98;4.88;;;3.70;99.90;;;;;;5021807;28;20168;-78
2022/10/12 03:07:06;;;;;;;9.32;4.72;;;3.80;99.90;;;;;;5022534;28;20025;-78
2022/10/12 03:09:31;;;;;;;10.25;4.80;;;4.00;99.90;;;;;;5020366;28;20025;-78
2022/10/12 03:11:57;;;;;;;10.48;4.28;;;4.00;99.90;;;;;;5020557;28;20392;-79
2022/10/12 03:14:25;;;;;;;8.25;4.70;;;4.10;99.90;;;;;;5018998;28;20025;-79
2022/10/12 03:16:51;;;;;;;13.63;5.05;;;4.00;99.90;;;;;;5019139;28;20039;-79
2022/10/12 03:19:16;;;;;;;8.93;4.78;;;4.00;99.90;;;;;;5022962;28;20132;-79
2022/10/12 03:21:42;;;;;;;15.25;5.15;;;4.00;99.90;;;;;;5021588;28;20048;-79
2022/10/12 03:24:07;;;;;;;9.70;4.95;;;4.00;99.90;;;;;;5021290;28;20098;-78
2022/10/12 03:26:33;;;;;;;9.80;4.93;;;3.90;99.90;;;;;;5020626;28;20154;-79
2022/10/12 03:28:58;;;;;;;11.90;5.22;;;3.90;99.90;;;;;;5019384;28;20201;-79
2022/10/12 03:31:24;;;;;;;11.65;5.65;;;4.00;99.90;;;;;;5025746;28;20088;-84
2022/10/12 03:33:49;;;;;;;10.80;5.78;;;4.00;99.90;;;;;;5020236;28;20018;-81
2022/10/12 03:36:15;;;;;;;14.05;6.07;;;3.90;99.90;;;;;;5026131;28;20021;-82
2022/10/12 03:38:40;;;;;;;17.50;6.97;;;3.90;99.90;;;;;;5025592;28;20025;-82
2022/10/12 03:41:06;;;;;;;16.27;6.55;;;3.90;99.90;;;;;;5024270;28;20116;-79
2022/10/12 03:43:44;;;;;;;16.35;7.18;;;3.90;99.90;;;;;;5016434;28;20508;-79
2022/10/12 03:46:09;;;;;;;15.35;6.43;;;3.90;99.90;;;;;;5022898;28;20021;-78
2022/10/12 03:48:35;;;;;;;16.70;6.65;;;3.80;99.90;;;;;;5022512;28;20656;-78
2022/10/12 03:51:00;;;;;;;13.20;6.63;;;3.80;99.90;;;;;;5022680;28;20037;-78
2022/10/12 03:53:26;;;;;;;16.80;7.07;;;3.70;99.90;;;;;;5022095;28;20035;-78
2022/10/12 03:55:51;;;;;;;16.38;7.47;;;3.80;99.90;;;;;;5023898;28;20032;-78
2022/10/12 03:58:17;;;;;;;15.82;6.38;;;3.80;99.90;;;;;;5013447;28;20038;-78
2022/10/12 04:00:43;;;;;;;14.60;6.97;;;3.70;99.90;;;;;;5021782;28;20097;-78
2022/10/12 04:03:08;;;;;;;19.55;7.55;;;3.60;99.90;;;;;;5017485;28;20690;-78
2022/10/12 04:05:34;;;;;;;18.83;7.38;;;3.60;99.90;;;;;;5022554;28;20034;-78
2022/10/12 04:07:59;;;;;;;17.48;8.07;;;3.60;99.90;;;;;;5021136;28;20704;-78
2022/10/12 04:10:25;;;;;;;17.27;7.55;;;3.60;99.90;;;;;;5024343;28;20107;-78
2022/10/12 04:12:50;;;;;;;17.42;7.90;;;3.60;99.90;;;;;;5019270;28;20040;-78
2022/10/12 04:15:19;;;;;;;23.42;9.15;;;3.50;99.90;;;;;;5027323;28;20049;-78
2022/10/12 04:17:45;;;;;;;20.35;8.75;;;3.60;99.90;;;;;;5012213;28;20026;-79
2022/10/12 04:20:11;;;;;;;21.48;9.02;;;3.30;99.90;;;;;;5024927;28;20024;-78
2022/10/12 04:22:37;;;;;;;23.08;9.32;;;3.40;99.90;;;;;;5023441;28;20396;-78
2022/10/12 04:25:03;;;;;;;19.98;10.05;;;3.50;99.90;;;;;;5026460;28;20033;-78
2022/10/12 04:27:28;;;;;;;22.15;9.00;;;3.50;99.90;;;;;;5015267;28;20022;-78
2022/10/12 04:29:54;;;;;;;17.55;8.80;;;3.50;99.90;;;;;;5017353;28;20037;-78
2022/10/12 04:32:19;;;;;;;22.02;9.32;;;3.60;99.90;;;;;;5029350;28;20045;-78
2022/10/12 04:34:45;;;;;;;21.85;8.88;;;3.60;99.90;;;;;;5024217;28;20038;-78
2022/10/12 04:37:10;;;;;;;19.02;8.93;;;3.60;99.90;;;;;;5014087;28;20022;-78
2022/10/12 04:39:36;;;;;;;21.25;9.50;;;3.50;99.90;;;;;;5023757;28;20025;-78
2022/10/12 04:42:01;;;;;;;19.77;8.50;;;3.40;99.90;;;;;;5026609;28;20013;-78
2022/10/12 04:44:27;;;;;;;21.95;9.20;;;3.50;99.90;;;;;;5026696;28;20100;-78
2022/10/12 04:46:52;;;;;;;21.92;8.90;;;3.50;99.90;;;;;;5027665;28;20013;-78
2022/10/12 04:49:18;;;;;;;27.33;8.82;;;3.40;99.90;;;;;;5021866;28;20030;-79
2022/10/12 04:51:43;;;;;;;19.75;8.90;;;3.40;99.90;;;;;;5023563;28;20029;-78
2022/10/12 04:54:09;;;;;;;16.73;8.30;;;3.30;99.90;;;;;;5026145;28;20447;-79
2022/10/12 04:56:35;;;;;;;19.75;8.35;;;3.30;99.90;;;;;;5027415;28;20037;-79
2022/10/12 04:59:00;;;;;;;21.30;7.72;;;3.30;99.90;;;;;;5021838;28;20032;-78
2022/10/12 05:01:26;;;;;;;22.63;8.95;;;3.30;99.90;;;;;;5027291;28;20720;-84
2022/10/12 05:03:51;;;;;;;25.17;8.98;;;3.40;99.90;;;;;;5018255;28;20018;-82
2022/10/12 05:06:17;;;;;;;17.98;8.43;;;3.30;99.90;;;;;;5020763;28;20071;-80
2022/10/12 05:08:42;;;;;;;22.15;8.02;;;3.30;99.90;;;;;;5020627;28;20034;-80
2022/10/12 05:11:08;;;;;;;17.20;7.75;;;3.20;99.90;;;;;;5022017;28;20025;-76
2022/10/12 05:13:33;;;;;;;14.65;7.47;;;3.20;99.90;;;;;;5014015;28;20033;-75
2022/10/12 05:16:50;;;;;;;14.88;7.50;;;3.10;99.90;;;;;;5018550;28;20034;-75
2022/10/12 05:18:57;;;;;;;17.65;8.18;;;3.20;99.90;;;;;;5023331;28;20049;-75
2022/10/12 05:21:22;;;;;;;19.48;8.63;;;3.00;99.90;;;;;;5029723;28;20075;-74
2022/10/12 05:23:51;;;;;;;18.80;8.10;;;3.00;99.90;;;;;;5019391;28;20496;-75
2022/10/12 05:26:17;;;;;;;20.58;7.88;;;3.10;99.90;;;;;;5029489;28;20041;-75
2022/10/12 05:28:43;;;;;;;17.02;8.13;;;3.10;99.90;;;;;;5021001;28;20026;-76
2022/10/12 05:31:08;;;;;;;18.80;8.90;;;3.00;99.90;;;;;;5025827;28;20040;-75
2022/10/12 05:33:34;;;;;;;20.42;8.55;;;3.10;99.90;;;;;;5027271;28;20040;-75
2022/10/12 05:35:59;;;;;;;18.85;8.10;;;3.00;99.90;;;;;;5019826;28;20061;-76
2022/10/12 05:38:33;;;;;;;22.08;8.45;;;3.20;99.90;;;;;;5013104;28;20544;-76
2022/10/12 05:40:59;;;;;;;17.55;9.00;;;3.20;99.90;;;;;;5015889;28;20029;-76
2022/10/12 05:43:24;;;;;;;15.95;7.80;;;3.30;99.90;;;;;;5025163;28;20071;-76
2022/10/12 05:45:50;;;;;;;20.10;9.32;;;3.30;99.90;;;;;;5030478;28;20056;-77
2022/10/12 05:48:15;;;;;;;17.65;9.30;;;3.30;99.90;;;;;;5028376;28;20396;-77
2022/10/12 05:50:41;;;;;;;18.23;9.00;;;3.30;99.90;;;;;;5019534;28;20025;-76
2022/10/12 05:53:06;;;;;;;17.95;9.05;;;3.30;99.90;;;;;;5027971;28;20133;-76
2022/10/12 05:55:32;;;;;;;20.52;9.25;;;3.30;99.90;;;;;;5021604;28;20033;-77
2022/10/12 05:57:57;;;;;;;23.10;9.25;;;3.30;99.90;;;;;;5015572;28;20121;-75
2022/10/12 06:00:23;;;;;;;21.80;9.30;;;3.40;99.90;;;;;;5028026;28;20026;-78
2022/10/12 06:02:48;;;;;;;16.55;8.50;;;3.40;99.90;;;;;;5026730;28;20033;-75
2022/10/12 06:05:14;;;;;;;21.65;9.50;;;3.40;99.90;;;;;;5022819;28;20018;-74
2022/10/12 06:07:39;;;;;;;26.20;9.48;;;3.40;99.90;;;;;;5012671;28;20072;-75
2022/10/12 06:10:06;;;;;;;19.58;8.70;;;3.50;99.90;;;;;;5018037;28;20034;-74
2022/10/12 06:12:31;;;;;;;22.92;9.10;;;3.60;99.90;;;;;;5026465;28;20021;-75
2022/10/12 06:14:57;;;;;;;18.40;8.10;;;3.60;99.90;;;;;;5010158;28;20040;-74
2022/10/12 06:17:22;;;;;;;17.98;7.93;;;3.70;99.90;;;;;;5014620;28;20160;-73
2022/10/12 06:19:48;;;;;;;17.20;8.07;;;3.80;99.90;;;;;;5017720;28;20049;-74
2022/10/12 06:22:13;;;;;;;16.40;8.15;;;3.90;99.90;;;;;;5028783;28;20103;-74
2022/10/12 06:24:39;;;;;;;24.33;10.18;;;3.90;99.90;;;;;;5027944;28;20167;-74
2022/10/12 06:27:04;;;;;;;18.90;8.27;;;4.00;99.90;;;;;;5028352;28;20021;-75
2022/10/12 06:29:30;;;;;;;24.27;8.70;;;4.10;99.90;;;;;;5019374;28;20358;-74
2022/10/12 06:31:55;;;;;;;19.73;8.80;;;4.10;99.90;;;;;;5022156;28;20249;-74
2022/10/12 06:34:21;;;;;;;18.33;8.07;;;4.20;99.90;;;;;;5027707;28;20025;-75
2022/10/12 06:36:47;;;;;;;18.50;8.38;;;4.20;99.90;;;;;;5027441;28;20669;-74
2022/10/12 06:39:12;;;;;;;18.88;9.15;;;4.30;99.90;;;;;;5025572;28;20079;-74
2022/10/12 06:41:38;;;;;;;22.90;10.48;;;4.40;99.90;;;;;;5015908;28;20030;-74
2022/10/12 06:44:04;;;;;;;21.13;11.05;;;4.40;99.90;;;;;;5019375;28;20027;-74
2022/10/12 06:46:29;;;;;;;22.20;10.60;;;4.40;99.90;;;;;;5026648;28;20736;-76
2022/10/12 06:48:55;;;;;;;25.92;11.63;;;4.50;99.90;;;;;;5011588;28;20053;-76
2022/10/12 06:51:20;;;;;;;18.77;10.10;;;4.40;99.90;;;;;;5016297;28;20013;-77
2022/10/12 06:53:46;;;;;;;22.65;10.50;;;4.50;99.90;;;;;;5010722;28;20500;-77
2022/10/12 06:56:11;;;;;;;23.80;10.00;;;4.60;99.90;;;;;;5020172;28;20025;-77
2022/10/12 06:58:37;;;;;;;18.83;10.85;;;4.70;99.90;;;;;;5025252;28;20033;-77
2022/10/12 07:01:09;;;;;;;31.95;13.35;;;4.90;99.90;;;;;;5020623;28;20032;-77
2022/10/12 07:03:35;;;;;;;29.27;14.32;;;5.00;99.90;;;;;;5022673;28;20029;-78
2022/10/12 07:06:09;;;;;;;32.35;15.45;;;5.00;99.90;;;;;;5026409;28;20484;-80
2022/10/12 07:08:35;;;;;;;26.60;13.55;;;5.10;99.90;;;;;;5008620;28;20608;-78
2022/10/12 07:11:02;;;;;;;23.83;12.00;;;5.20;99.90;;;;;;5008480;28;20113;-79
2022/10/12 07:13:28;;;;;;;23.25;10.88;;;5.10;99.90;;;;;;5008230;28;20038;-77
2022/10/12 07:15:53;;;;;;;18.27;9.77;;;5.20;99.90;;;;;;5015798;28;20037;-78
2022/10/12 07:18:19;;;;;;;19.00;10.13;;;5.30;99.90;;;;;;5013112;28;20413;-78
2022/10/12 07:20:44;;;;;;;23.85;9.07;;;5.40;99.90;;;;;;5013802;28;20053;-80
2022/10/12 07:23:10;;;;;;;23.20;9.27;;;5.50;99.90;;;;;;5009487;28;20061;-80
2022/10/12 07:25:35;;;;;;;16.02;8.85;;;5.70;99.90;;;;;;5020895;28;20484;-78
2022/10/12 07:28:04;;;;;;;23.90;10.30;;;5.90;99.90;;;;;;5016101;28;20079;-79
2022/10/12 07:30:29;;;;;;;26.55;10.48;;;5.90;99.90;;;;;;5008917;28;20057;-81
2022/10/12 07:32:55;;;;;;;22.83;11.27;;;6.10;99.90;;;;;;5015992;28;20081;-81
2022/10/12 07:35:20;;;;;;;27.35;11.15;;;6.20;99.90;;;;;;5020362;28;20025;-81
2022/10/12 07:37:47;;;;;;;21.08;10.02;;;6.30;99.90;;;;;;5008971;28;20037;-81
2022/10/12 07:40:13;;;;;;;22.88;10.23;;;6.50;99.90;;;;;;5019235;28;20480;-81
2022/10/12 07:42:38;;;;;;;17.27;8.90;;;6.60;99.90;;;;;;5021859;28;20034;-81
2022/10/12 07:45:04;;;;;;;18.60;9.25;;;6.80;99.90;;;;;;5017606;28;20029;-80
2022/10/12 07:47:29;;;;;;;24.63;10.40;;;7.00;99.90;;;;;;5021560;28;20049;-80
2022/10/12 07:49:55;;;;;;;18.15;8.57;;;7.20;99.90;;;;;;5024324;28;20033;-81
2022/10/12 07:52:20;;;;;;;25.17;9.13;;;7.50;99.90;;;;;;5022731;28;20037;-80
2022/10/12 07:54:46;;;;;;;20.98;9.18;;;7.60;99.90;;;;;;5026241;28;20511;-80
2022/10/12 07:57:11;;;;;;;19.85;8.98;;;7.80;99.90;;;;;;5024781;28;20030;-80
2022/10/12 07:59:52;;;;;;;20.08;8.85;;;7.90;99.90;;;;;;5023752;28;20026;-80
2022/10/12 08:02:17;;;;;;;22.90;9.23;;;8.10;99.90;;;;;;5021071;28;20420;-80
2022/10/12 08:04:43;;;;;;;15.00;8.23;;;8.30;99.90;;;;;;5025231;28;20120;-80
2022/10/12 08:07:08;;;;;;;16.40;7.63;;;8.60;99.90;;;;;;5023431;28;20384;-80
2022/10/12 08:09:35;;;;;;;18.83;7.57;;;8.80;99.90;;;;;;5030289;28;20037;-80
2022/10/12 08:12:01;;;;;;;20.63;7.32;;;9.00;99.90;;;;;;5026484;28;20222;-78
2022/10/12 08:14:26;;;;;;;12.00;6.43;;;9.10;99.90;;;;;;5028326;28;20509;-78
2022/10/12 08:16:52;;;;;;;14.38;6.32;;;9.20;99.90;;;;;;5028610;28;20044;-78
2022/10/12 08:19:17;;;;;;;20.23;6.40;;;9.40;99.90;;;;;;5028823;28;20060;-78
2022/10/12 08:21:43;;;;;;;15.07;6.78;;;9.50;99.90;;;;;;5030533;28;20097;-78
2022/10/12 08:24:11;;;;;;;17.08;7.85;;;9.70;99.90;;;;;;5026204;28;20151;-78
2022/10/12 08:26:37;;;;;;;14.57;6.47;;;9.90;99.90;;;;;;5019255;28;20029;-78
2022/10/12 08:29:04;;;;;;;12.57;6.32;;;10.00;99.90;;;;;;5025617;28;20477;-77
2022/10/12 08:31:30;;;;;;;13.75;6.03;;;10.10;99.90;;;;;;5030975;28;20484;-83
2022/10/12 08:33:59;;;;;;;11.95;5.70;;;10.30;99.90;;;;;;5029512;28;20117;-81
2022/10/12 08:36:25;;;;;;;12.00;5.47;;;10.50;99.90;;;;;;5023961;28;20044;-81
2022/10/12 08:38:54;;;;;;;17.08;6.18;;;10.60;99.90;;;;;;5017869;28;20208;-82
2022/10/12 08:42:00;;;;;;;12.48;5.55;;;10.60;99.90;;;;;;5023804;28;20025;-80
2022/10/12 08:44:32;;;;;;;7.45;4.43;;;10.70;99.90;;;;;;5007485;28;20038;-80
2022/10/12 08:47:13;;;;;;;10.50;4.88;;;10.80;99.90;;;;;;5010884;28;20025;-80
2022/10/12 08:49:40;;;;;;;9.77;4.38;;;10.90;99.90;;;;;;5023609;28;20034;-80
2022/10/12 08:52:32;;;;;;;11.35;4.20;;;10.90;99.90;;;;;;5014080;28;20026;-80
2022/10/12 08:54:59;;;;;;;;;;;11.00;99.90;;;;;;5011198;28;20109;-80
2022/10/12 08:57:25;;;;;;;9.57;3.47;;;11.20;99.90;;;;;;5017021;28;19932;-81
2022/10/12 08:59:50;;;;;;;9.50;3.55;;;11.50;99.90;;;;;;5028895;28;20551;-80
2022/10/12 09:02:38;;;;;;;13.68;3.80;;;11.70;99.90;;;;;;5029598;28;20138;-80
2022/10/12 09:05:09;;;;;;;9.52;3.63;;;12.00;99.90;;;;;;5027095;28;20139;-80
2022/10/12 09:08:01;;;;;;;9.52;3.05;;;12.30;99.90;;;;;;5017205;28;20411;-80
2022/10/12 09:10:44;;;;;;;8.35;3.50;;;12.40;99.90;;;;;;5018843;28;20112;-80
2022/10/12 09:13:36;;;;;;;8.23;3.00;;;12.60;99.90;;;;;;5029006;28;20033;-80
2022/10/12 09:16:09;;;;;;;6.68;3.08;;;12.60;99.90;;;;;;5015010;28;20037;-80
2022/10/12 09:18:45;;;;;;;8.43;2.42;;;12.70;99.90;;;;;;5009807;28;20624;-81
2022/10/12 09:21:16;;;;;;;8.25;3.03;;;12.80;99.90;;;;;;5010107;28;20025;-79
2022/10/12 09:23:45;;;;;;;6.47;2.35;;;13.00;99.90;;;;;;5010258;28;20041;-81
2022/10/12 09:26:16;;;;;;;8.57;2.60;;;13.10;99.90;;;;;;5023271;28;20144;-81
2022/10/12 09:28:55;;;;;;;;;;;13.20;99.90;;;;;;5028937;28;20025;-81
2022/10/12 09:31:49;;;;;;;10.27;2.40;;;13.30;99.90;;;;;;5020955;28;20360;-81
2022/10/12 09:34:15;;;;;;;7.50;2.60;;;13.60;99.90;;;;;;5022496;28;20484;-80
2022/10/12 09:36:41;;;;;;;7.13;1.70;;;13.70;99.90;;;;;;5029764;28;20026;-81
2022/10/12 09:39:24;;;;;;;4.15;1.88;;;13.70;99.80;;;;;;5019146;28;20026;-80
2022/10/12 09:41:49;;;;;;;4.05;2.03;;;14.00;98.20;;;;;;5010856;28;20060;-84
2022/10/12 09:44:35;;;;;;;4.90;1.45;;;14.10;98.30;;;;;;5009701;28;20044;-81
2022/10/12 09:47:03;;;;;;;2.28;1.10;;;14.30;95.90;;;;;;5009215;28;20052;-82
2022/10/12 09:49:46;;;;;;;2.45;1.35;;;14.20;95.40;;;;;;5011063;28;20231;-81
2022/10/12 09:52:14;;;;;;;5.20;1.98;;;14.30;93.30;;;;;;5027014;28;20032;-83
2022/10/12 09:54:55;;;;;;;7.38;1.30;;;14.40;93.50;;;;;;5029183;28;20028;-80
2022/10/12 09:57:24;;;;;;;3.85;1.40;;;14.40;92.60;;;;;;5010111;28;20032;-81
2022/10/12 09:59:50;;;;;;;4.13;1.02;;;14.70;93.90;;;;;;5019852;28;20025;-80
2022/10/12 10:02:21;;;;;;;5.00;1.30;;;14.70;93.50;;;;;;5025709;28;20040;-80
2022/10/12 10:04:48;;;;;;;3.42;1.00;;;14.80;92.20;;;;;;5027936;28;20030;-80
2022/10/12 10:07:34;;;;;;;3.22;1.38;;;14.90;90.40;;;;;;5021076;28;20030;-80
2022/10/12 10:10:09;;;;;;;7.20;1.10;;;15.00;89.90;;;;;;5009265;28;20034;-80
2022/10/12 10:12:52;;;;;;;1.50;1.00;;;15.10;91.30;;;;;;5021268;28;20455;-80
2022/10/12 10:15:28;;;;;;;1.75;1.13;;;15.40;91.50;;;;;;5028819;28;20144;-81
2022/10/12 10:18:03;;;;;;;2.92;1.42;;;15.50;89.40;;;;;;5028578;28;20033;-80
2022/10/12 10:20:42;;;;;;;3.28;1.42;;;15.60;87.70;;;;;;5028366;28;20037;-80
2022/10/12 10:23:27;;;;;;;4.45;1.25;;;15.70;89.40;;;;;;5020548;28;20030;-79
2022/10/12 10:26:08;;;;;;;1.98;1.13;;;15.90;87.30;;;;;;5028987;28;20239;-79
2022/10/12 10:28:44;;;;;;;4.30;1.05;;;16.00;86.20;;;;;;5028435;28;20029;-80
2022/10/12 10:31:14;;;;;;;3.35;1.40;;;16.20;86.80;;;;;;5028545;28;20404;-79
2022/10/12 10:33:41;;;;;;;5.57;1.45;;;16.30;85.00;;;;;;5021557;28;20112;-80
2022/10/12 10:36:22;;;;;;;4.22;1.23;;;16.40;85.00;;;;;;5026509;28;20025;-81
2022/10/12 10:39:05;;;;;;;4.63;1.20;;;16.60;82.60;;;;;;5028662;28;20025;-80
2022/10/12 10:41:35;;;;;;;7.47;1.40;;;16.90;81.50;;;;;;5028305;28;20116;-80
2022/10/12 10:44:02;;;;;;;2.83;1.42;;;17.50;81.80;;;;;;5027041;28;20025;-79
2022/10/12 10:46:30;;;;;;;3.45;1.35;;;18.40;77.40;;;;;;5015000;28;20108;-82
2022/10/12 10:49:05;;;;;;;3.75;0.98;;;19.50;74.90;;;;;;5028613;28;20037;-80
2022/10/12 10:51:52;;;;;;;2.47;1.02;;;21.50;68.20;;;;;;5028659;28;20104;-80
2022/10/12 10:54:27;;;;;;;1.83;0.90;;;23.50;59.10;;;;;;5026698;28;20025;-79
2022/10/12 10:56:57;;;;;;;2.35;1.10;;;25.30;53.00;;;;;;5008772;28;20029;-80
2022/10/12 10:59:50;;;;;;;8.70;1.65;;;27.00;51.40;;;;;;5016407;28;20040;-80
2022/10/12 11:02:44;;;;;;;3.05;1.50;;;27.40;47.70;;;;;;5008514;28;20088;-80
2022/10/12 11:05:21;;;;;;;4.85;1.45;;;28.50;44.40;;;;;;5017266;28;20046;-80
2022/10/12 11:07:59;;;;;;;1.73;1.00;;;28.70;42.00;;;;;;5022317;28;20366;-79
2022/10/12 11:10:34;;;;;;;2.20;1.20;;;30.30;42.20;;;;;;5020047;28;20504;-80
2022/10/12 11:13:07;;;;;;;2.60;1.58;;;29.80;40.90;;;;;;5026122;28;20124;-79
2022/10/12 11:15:58;;;;;;;2.17;1.17;;;29.70;40.60;;;;;;5027719;28;20033;-80
2022/10/12 11:18:38;;;;;;;3.17;1.20;;;30.80;38.40;;;;;;5025753;28;20047;-80
2022/10/12 11:21:10;;;;;;;2.80;1.23;;;30.10;39.20;;;;;;5027419;28;20037;-79
2022/10/12 11:24:03;;;;;;;5.85;1.33;;;31.80;40.00;;;;;;5026804;28;20448;-79
2022/10/12 11:26:57;;;;;;;4.05;1.05;;;33.10;37.00;;;;;;5021165;28;20033;-79
2022/10/12 11:29:22;;;;;;;1.90;1.08;;;33.90;36.90;;;;;;5015336;28;20063;-80
2022/10/12 11:32:35;;;;;;;1.45;0.98;;;34.20;34.90;;;;;;5023801;28;20033;-80
2022/10/12 11:35:03;;;;;;;2.45;1.10;;;32.90;35.10;;;;;;5015082;28;20053;-79
2022/10/12 11:37:37;;;;;;;3.53;1.10;;;28.60;40.20;;;;;;5020704;28;20079;-79
2022/10/12 11:40:07;;;;;;;5.32;1.52;;;24.30;47.10;;;;;;5024304;28;20463;-79
2022/10/12 11:42:40;;;;;;;2.88;1.10;;;21.80;52.30;;;;;;5021050;28;20025;-78
2022/10/12 11:45:37;;;;;;;1.80;0.82;;;22.10;52.70;;;;;;5007395;28;20058;-77
2022/10/12 11:48:12;;;;;;;3.42;1.10;;;26.60;44.50;;;;;;5017244;28;20046;-79
2022/10/12 11:50:44;;;;;;;2.20;0.82;;;23.60;48.50;;;;;;5027329;28;20032;-78
2022/10/12 11:53:24;;;;;;;2.13;1.15;;;22.40;51.70;;;;;;5026168;28;20112;-78
2022/10/12 11:56:08;;;;;;;1.60;0.70;;;23.40;52.00;;;;;;5019039;28;20025;-79
2022/10/12 11:58:41;;;;;;;3.17;1.00;;;26.60;44.40;;;;;;5021580;28;20041;-78
2022/10/12 12:01:31;;;;;;;3.05;0.90;;;23.00;49.30;;;;;;5026265;28;20564;-79
2022/10/12 12:04:17;;;;;;;5.28;1.15;;;26.60;47.50;;;;;;5025161;28;20037;-79
2022/10/12 12:06:56;;;;;;;6.25;1.73;;;24.10;49.60;;;;;;5022401;28;20045;-78
2022/10/12 12:09:43;;;;;;;1.75;0.95;;;23.60;50.20;;;;;;5011827;28;20594;-78
2022/10/12 12:12:12;;;;;;;2.90;1.10;;;28.70;44.00;;;;;;5004540;28;20311;-78
2022/10/12 12:14:53;;;;;;;4.07;1.02;;;28.20;42.70;;;;;;5009098;28;20032;-79
2022/10/12 12:17:18;;;;;;;1.73;0.90;;;29.60;41.00;;;;;;5027612;28;20018;-77
2022/10/12 12:19:49;;;;;;;1.35;0.90;;;29.90;41.10;;;;;;5010022;28;20130;-78
2022/10/12 12:22:19;;;;;;;2.15;1.13;;;28.20;43.30;;;;;;5007459;28;20022;-79
2022/10/12 12:25:06;;;;;;;5.70;1.00;;;28.70;43.00;;;;;;5006844;28;20030;-78
2022/10/12 12:27:51;;;;;;;1.98;1.10;;;29.80;42.10;;;;;;5008944;28;20433;-79
2022/10/12 12:30:16;;;;;;;5.70;1.20;;;29.50;40.10;;;;;;5010592;28;20568;-78
2022/10/12 12:32:45;;;;;;;1.40;0.80;;;29.90;40.90;;;;;;5006826;28;20037;-79
2022/10/12 12:35:24;;;;;;;2.03;1.13;;;29.90;40.70;;;;;;5006996;28;20033;-79
2022/10/12 12:38:22;;;;;;;5.72;1.10;;;30.40;39.30;;;;;;5025704;28;20038;-79
2022/10/12 12:41:06;;;;;;;5.03;0.80;;;27.80;41.50;;;;;;5026479;28;20092;-78
2022/10/12 12:43:31;;;;;;;2.00;1.02;;;27.60;43.70;;;;;;5016685;28;20025;-78
2022/10/12 12:46:02;;;;;;;1.83;1.05;;;24.00;45.40;;;;;;5012634;28;20076;-78
2022/10/12 12:48:43;;;;;;;2.33;0.95;;;21.70;50.50;;;;;;5019923;28;20033;-78
2022/10/12 12:51:19;;;;;;;1.20;0.80;;;24.30;49.70;;;;;;5010719;28;20046;-78
2022/10/12 12:53:56;;;;;;;3.75;0.93;;;29.10;41.30;;;;;;5011997;28;20025;-78
2022/10/12 12:56:24;;;;;;;5.68;1.27;;;31.70;36.30;;;;;;5029901;28;20026;-78
2022/10/12 12:59:27;;;;;;;4.30;0.95;;;30.80;36.20;;;;;;5024299;28;20030;-79
2022/10/12 13:02:01;;;;;;;2.95;1.08;;;31.20;37.90;;;;;;5027018;28;20042;-79
2022/10/12 13:04:49;;;;;;;3.53;1.00;;;34.30;35.60;;;;;;5029125;28;20029;-78
2022/10/12 13:07:39;;;;;;;2.72;0.80;;;36.80;34.20;;;;;;5022838;28;20676;-78